sensor_id;sensor_type;location;lat;lon;timestamp;pressure;altitude;pressure_sealevel;temperature;humidity
74594;BME280;63097;51.872;4.460;2023-07-08T00:00:44;101808.13;;;21.51;51.87
74594;BME280;63097;51.872;4.460;2023-07-08T00:03:10;101804.22;;;21.47;51.48
74594;BME280;63097;51.872;4.460;2023-07-08T00:05:35;101807.94;;;21.43;51.91
74594;BME280;63097;51.872;4.460;2023-07-08T00:08:01;101804.84;;;21.44;51.66
74594;BME280;63097;51.872;4.460;2023-07-08T00:10:27;101794.34;;;21.45;51.54
74594;BME280;63097;51.872;4.460;2023-07-08T00:12:55;101793.31;;;21.36;51.87
74594;BME280;63097;51.872;4.460;2023-07-08T00:15:26;101788.88;;;21.30;52.07
74594;BME280;63097;51.872;4.460;2023-07-08T00:17:52;101787.31;;;21.19;52.55
74594;BME280;63097;51.872;4.460;2023-07-08T00:20:35;101786.22;;;21.15;53.21
74594;BME280;63097;51.872;4.460;2023-07-08T00:23:02;101790.41;;;21.17;52.36
74594;BME280;63097;51.872;4.460;2023-07-08T00:25:28;101789.63;;;21.12;52.81
74594;BME280;63097;51.872;4.460;2023-07-08T00:27:54;101782.94;;;21.02;53.52
74594;BME280;63097;51.872;4.460;2023-07-08T00:32:48;101786.44;;;20.89;53.66
74594;BME280;63097;51.872;4.460;2023-07-08T00:35:13;101785.94;;;20.87;53.42
74594;BME280;63097;51.872;4.460;2023-07-08T00:37:39;101784.97;;;20.97;53.42
74594;BME280;63097;51.872;4.460;2023-07-08T00:40:14;101783.34;;;20.91;53.84
74594;BME280;63097;51.872;4.460;2023-07-08T00:42:41;101778.03;;;20.84;53.38
74594;BME280;63097;51.872;4.460;2023-07-08T00:45:26;101781.72;;;20.85;54.08
74594;BME280;63097;51.872;4.460;2023-07-08T00:47:55;101769.91;;;20.78;53.73
74594;BME280;63097;51.872;4.460;2023-07-08T00:50:21;101773.78;;;20.87;53.69
74594;BME280;63097;51.872;4.460;2023-07-08T00:52:47;101770.03;;;20.91;53.58
74594;BME280;63097;51.872;4.460;2023-07-08T00:55:13;101762.69;;;20.90;53.38
74594;BME280;63097;51.872;4.460;2023-07-08T00:57:41;101764.84;;;20.75;53.58
74594;BME280;63097;51.872;4.460;2023-07-08T01:00:11;101761.44;;;20.78;53.65
74594;BME280;63097;51.872;4.460;2023-07-08T01:02:53;101762.56;;;20.77;53.84
74594;BME280;63097;51.872;4.460;2023-07-08T01:05:22;101763.75;;;20.71;53.68
74594;BME280;63097;51.872;4.460;2023-07-08T01:07:52;101773.81;;;20.53;54.59
74594;BME280;63097;51.872;4.460;2023-07-08T01:10:26;101773.00;;;20.53;54.89
74594;BME280;63097;51.872;4.460;2023-07-08T01:12:55;101768.75;;;20.50;55.11
74594;BME280;63097;51.872;4.460;2023-07-08T01:15:23;101766.00;;;20.40;55.23
74594;BME280;63097;51.872;4.460;2023-07-08T01:17:50;101759.28;;;20.36;55.57
74594;BME280;63097;51.872;4.460;2023-07-08T01:20:16;101764.75;;;20.23;56.00
74594;BME280;63097;51.872;4.460;2023-07-08T01:22:42;101763.41;;;20.10;56.27
74594;BME280;63097;51.872;4.460;2023-07-08T01:25:09;101756.75;;;20.35;56.16
74594;BME280;63097;51.872;4.460;2023-07-08T01:27:40;101758.75;;;20.29;55.97
74594;BME280;63097;51.872;4.460;2023-07-08T01:30:07;101753.53;;;20.08;56.65
74594;BME280;63097;51.872;4.460;2023-07-08T01:32:34;101753.50;;;20.18;56.80
74594;BME280;63097;51.872;4.460;2023-07-08T01:35:01;101756.31;;;20.13;56.75
74594;BME280;63097;51.872;4.460;2023-07-08T01:37:40;101748.16;;;20.11;56.97
74594;BME280;63097;51.872;4.460;2023-07-08T01:42:41;101747.59;;;20.09;56.18
74594;BME280;63097;51.872;4.460;2023-07-08T01:45:11;101743.03;;;20.13;56.42
74594;BME280;63097;51.872;4.460;2023-07-08T01:47:37;101746.22;;;20.07;56.59
74594;BME280;63097;51.872;4.460;2023-07-08T01:50:02;101740.28;;;20.08;56.73
74594;BME280;63097;51.872;4.460;2023-07-08T01:52:28;101732.91;;;20.07;56.62
74594;BME280;63097;51.872;4.460;2023-07-08T01:54:56;101739.41;;;20.08;56.34
74594;BME280;63097;51.872;4.460;2023-07-08T01:57:21;101733.78;;;20.08;56.47
74594;BME280;63097;51.872;4.460;2023-07-08T01:59:47;101731.59;;;19.99;56.75
74594;BME280;63097;51.872;4.460;2023-07-08T02:02:12;101729.69;;;19.90;57.02
74594;BME280;63097;51.872;4.460;2023-07-08T02:04:37;101725.69;;;19.96;56.66
74594;BME280;63097;51.872;4.460;2023-07-08T02:07:03;101720.34;;;19.89;57.50
74594;BME280;63097;51.872;4.460;2023-07-08T02:09:28;101722.06;;;19.90;56.76
74594;BME280;63097;51.872;4.460;2023-07-08T02:11:53;101715.06;;;19.78;57.26
74594;BME280;63097;51.872;4.460;2023-07-08T02:14:19;101721.56;;;19.78;57.29
74594;BME280;63097;51.872;4.460;2023-07-08T02:16:44;101724.47;;;19.68;57.66
74594;BME280;63097;51.872;4.460;2023-07-08T02:19:10;101718.88;;;19.58;58.57
74594;BME280;63097;51.872;4.460;2023-07-08T02:21:35;101714.63;;;19.61;57.89
74594;BME280;63097;51.872;4.460;2023-07-08T02:24:01;101717.72;;;19.64;58.00
74594;BME280;63097;51.872;4.460;2023-07-08T02:26:26;101711.78;;;19.66;58.24
74594;BME280;63097;51.872;4.460;2023-07-08T02:28:51;101721.72;;;19.53;58.36
74594;BME280;63097;51.872;4.460;2023-07-08T02:31:17;101711.81;;;19.56;58.33
74594;BME280;63097;51.872;4.460;2023-07-08T02:33:42;101709.94;;;19.46;58.91
74594;BME280;63097;51.872;4.460;2023-07-08T02:36:07;101707.09;;;19.46;59.02
74594;BME280;63097;51.872;4.460;2023-07-08T02:38:33;101698.59;;;19.51;58.28
74594;BME280;63097;51.872;4.460;2023-07-08T02:40:59;101706.88;;;19.33;58.92
74594;BME280;63097;51.872;4.460;2023-07-08T02:43:24;101704.84;;;19.43;59.10
74594;BME280;63097;51.872;4.460;2023-07-08T02:45:50;101710.84;;;19.32;59.85
74594;BME280;63097;51.872;4.460;2023-07-08T02:48:17;101701.50;;;19.36;58.81
74594;BME280;63097;51.872;4.460;2023-07-08T02:50:43;101693.06;;;19.31;59.90
74594;BME280;63097;51.872;4.460;2023-07-08T02:53:08;101692.19;;;19.36;59.22
74594;BME280;63097;51.872;4.460;2023-07-08T02:55:33;101697.56;;;19.32;58.88
74594;BME280;63097;51.872;4.460;2023-07-08T02:57:59;101703.50;;;19.26;60.16
74594;BME280;63097;51.872;4.460;2023-07-08T03:00:24;101697.59;;;19.22;60.43
74594;BME280;63097;51.872;4.460;2023-07-08T03:02:49;101704.41;;;19.16;59.89
74594;BME280;63097;51.872;4.460;2023-07-08T03:05:15;101713.16;;;19.15;60.01
74594;BME280;63097;51.872;4.460;2023-07-08T03:07:40;101717.66;;;19.16;60.31
74594;BME280;63097;51.872;4.460;2023-07-08T03:10:05;101717.38;;;19.12;60.03
74594;BME280;63097;51.872;4.460;2023-07-08T03:12:31;101716.84;;;19.05;60.90
74594;BME280;63097;51.872;4.460;2023-07-08T03:14:56;101725.31;;;19.05;61.30
74594;BME280;63097;51.872;4.460;2023-07-08T03:17:21;101719.41;;;19.01;61.52
74594;BME280;63097;51.872;4.460;2023-07-08T03:19:47;101720.00;;;18.98;60.91
74594;BME280;63097;51.872;4.460;2023-07-08T03:22:12;101733.53;;;18.96;61.08
74594;BME280;63097;51.872;4.460;2023-07-08T03:24:37;101724.25;;;18.91;61.52
74594;BME280;63097;51.872;4.460;2023-07-08T03:27:03;101732.13;;;18.94;61.58
74594;BME280;63097;51.872;4.460;2023-07-08T03:29:28;101728.19;;;18.85;61.87
74594;BME280;63097;51.872;4.460;2023-07-08T03:31:53;101731.91;;;18.80;62.24
74594;BME280;63097;51.872;4.460;2023-07-08T03:34:19;101733.88;;;18.80;61.93
74594;BME280;63097;51.872;4.460;2023-07-08T03:36:46;101729.34;;;18.79;62.08
74594;BME280;63097;51.872;4.460;2023-07-08T03:39:12;101725.94;;;18.87;61.62
74594;BME280;63097;51.872;4.460;2023-07-08T03:41:37;101725.13;;;18.76;62.94
74594;BME280;63097;51.872;4.460;2023-07-08T03:44:03;101724.56;;;18.79;62.42
74594;BME280;63097;51.872;4.460;2023-07-08T03:46:28;101731.31;;;18.73;62.16
74594;BME280;63097;51.872;4.460;2023-07-08T03:48:53;101725.13;;;18.76;62.42
74594;BME280;63097;51.872;4.460;2023-07-08T03:51:24;101730.50;;;18.73;63.23
74594;BME280;63097;51.872;4.460;2023-07-08T03:53:51;101719.53;;;18.61;62.70
74594;BME280;63097;51.872;4.460;2023-07-08T03:56:16;101720.66;;;18.65;62.82
74594;BME280;63097;51.872;4.460;2023-07-08T03:58:42;101718.97;;;18.69;63.18
74594;BME280;63097;51.872;4.460;2023-07-08T04:01:33;101728.28;;;18.60;63.31
74594;BME280;63097;51.872;4.460;2023-07-08T04:03:59;101713.91;;;18.56;63.50
74594;BME280;63097;51.872;4.460;2023-07-08T04:06:25;101730.81;;;18.56;63.84
74594;BME280;63097;51.872;4.460;2023-07-08T04:08:51;101734.19;;;18.58;63.75
74594;BME280;63097;51.872;4.460;2023-07-08T04:11:19;101732.75;;;18.61;63.47
74594;BME280;63097;51.872;4.460;2023-07-08T04:13:45;101735.88;;;18.54;64.05
74594;BME280;63097;51.872;4.460;2023-07-08T04:16:17;101740.13;;;18.57;63.91
74594;BME280;63097;51.872;4.460;2023-07-08T04:18:44;101736.72;;;18.65;63.18
74594;BME280;63097;51.872;4.460;2023-07-08T04:21:09;101732.22;;;18.64;63.90
74594;BME280;63097;51.872;4.460;2023-07-08T04:23:34;101745.47;;;18.58;64.54
74594;BME280;63097;51.872;4.460;2023-07-08T04:26:00;101741.53;;;18.54;63.76
74594;BME280;63097;51.872;4.460;2023-07-08T04:28:26;101749.41;;;18.57;63.96
74594;BME280;63097;51.872;4.460;2023-07-08T04:30:51;101744.31;;;18.59;63.70
74594;BME280;63097;51.872;4.460;2023-07-08T04:33:17;101747.44;;;18.53;65.21
74594;BME280;63097;51.872;4.460;2023-07-08T04:35:43;101743.78;;;18.47;64.58
74594;BME280;63097;51.872;4.460;2023-07-08T04:38:21;101749.97;;;18.59;64.20
74594;BME280;63097;51.872;4.460;2023-07-08T04:40:48;101755.88;;;18.63;64.07
74594;BME280;63097;51.872;4.460;2023-07-08T04:43:14;101750.50;;;18.66;63.98
74594;BME280;63097;51.872;4.460;2023-07-08T04:45:40;101751.09;;;18.63;64.35
74594;BME280;63097;51.872;4.460;2023-07-08T04:48:11;101742.59;;;18.73;63.92
74594;BME280;63097;51.872;4.460;2023-07-08T04:50:43;101737.53;;;18.70;64.31
74594;BME280;63097;51.872;4.460;2023-07-08T04:53:09;101730.47;;;18.78;64.10
74594;BME280;63097;51.872;4.460;2023-07-08T04:55:40;101735.84;;;18.74;64.68
74594;BME280;63097;51.872;4.460;2023-07-08T04:58:06;101744.28;;;18.89;63.60
74594;BME280;63097;51.872;4.460;2023-07-08T05:00:32;101740.34;;;18.85;64.41
74594;BME280;63097;51.872;4.460;2023-07-08T05:02:57;101741.72;;;18.93;63.30
74594;BME280;63097;51.872;4.460;2023-07-08T05:05:23;101738.91;;;18.93;64.00
74594;BME280;63097;51.872;4.460;2023-07-08T05:07:48;101730.72;;;18.96;63.91
74594;BME280;63097;51.872;4.460;2023-07-08T05:10:13;101735.75;;;19.10;63.40
74594;BME280;63097;51.872;4.460;2023-07-08T05:12:39;101742.22;;;19.10;63.68
74594;BME280;63097;51.872;4.460;2023-07-08T05:15:04;101736.88;;;19.03;63.68
74594;BME280;63097;51.872;4.460;2023-07-08T05:17:30;101739.13;;;19.12;63.86
74594;BME280;63097;51.872;4.460;2023-07-08T05:19:55;101728.34;;;19.24;62.94
74594;BME280;63097;51.872;4.460;2023-07-08T05:22:21;101726.94;;;19.21;63.36
74594;BME280;63097;51.872;4.460;2023-07-08T05:24:46;101734.81;;;19.29;63.21
74594;BME280;63097;51.872;4.460;2023-07-08T05:27:11;101735.66;;;19.35;62.57
74594;BME280;63097;51.872;4.460;2023-07-08T05:29:36;101734.47;;;19.46;62.36
74594;BME280;63097;51.872;4.460;2023-07-08T05:32:02;101728.53;;;19.47;62.34
74594;BME280;63097;51.872;4.460;2023-07-08T05:34:27;101729.03;;;19.59;61.92
74594;BME280;63097;51.872;4.460;2023-07-08T05:36:53;101732.59;;;19.75;61.44
74594;BME280;63097;51.872;4.460;2023-07-08T05:39:18;101729.78;;;19.75;61.71
74594;BME280;63097;51.872;4.460;2023-07-08T05:41:43;101730.03;;;19.78;61.94
74594;BME280;63097;51.872;4.460;2023-07-08T05:44:08;101728.56;;;19.86;60.90
74594;BME280;63097;51.872;4.460;2023-07-08T05:46:34;101734.53;;;19.84;61.01
74594;BME280;63097;51.872;4.460;2023-07-08T05:48:59;101732.19;;;19.91;62.06
74594;BME280;63097;51.872;4.460;2023-07-08T05:51:24;101732.66;;;20.03;61.31
74594;BME280;63097;51.872;4.460;2023-07-08T05:53:50;101729.72;;;20.24;60.58
74594;BME280;63097;51.872;4.460;2023-07-08T05:56:15;101722.38;;;20.23;60.21
74594;BME280;63097;51.872;4.460;2023-07-08T05:58:40;101726.19;;;20.37;59.72
74594;BME280;63097;51.872;4.460;2023-07-08T06:01:06;101722.81;;;20.35;60.08
74594;BME280;63097;51.872;4.460;2023-07-08T06:03:31;101722.75;;;20.45;59.25
74594;BME280;63097;51.872;4.460;2023-07-08T06:05:56;101731.97;;;20.55;59.73
74594;BME280;63097;51.872;4.460;2023-07-08T06:08:21;101729.59;;;20.67;59.49
74594;BME280;63097;51.872;4.460;2023-07-08T06:10:47;101729.78;;;20.76;59.15
74594;BME280;63097;51.872;4.460;2023-07-08T06:13:13;101729.84;;;20.94;58.56
74594;BME280;63097;51.872;4.460;2023-07-08T06:15:39;101725.78;;;21.06;57.86
74594;BME280;63097;51.872;4.460;2023-07-08T06:18:05;101724.31;;;21.08;58.97
74594;BME280;63097;51.872;4.460;2023-07-08T06:20:30;101735.28;;;21.38;57.69
74594;BME280;63097;51.872;4.460;2023-07-08T06:22:56;101736.59;;;21.46;57.20
74594;BME280;63097;51.872;4.460;2023-07-08T06:25:21;101736.69;;;21.78;56.66
74594;BME280;63097;51.872;4.460;2023-07-08T06:27:46;101742.81;;;21.85;55.89
74594;BME280;63097;51.872;4.460;2023-07-08T06:30:12;101730.50;;;21.94;55.35
74594;BME280;63097;51.872;4.460;2023-07-08T06:32:37;101735.84;;;22.15;55.98
74594;BME280;63097;51.872;4.460;2023-07-08T06:35:03;101737.81;;;22.33;54.71
74594;BME280;63097;51.872;4.460;2023-07-08T06:37:28;101733.28;;;22.32;53.79
74594;BME280;63097;51.872;4.460;2023-07-08T06:39:54;101732.41;;;22.50;54.25
74594;BME280;63097;51.872;4.460;2023-07-08T06:42:19;101737.13;;;22.54;54.14
74594;BME280;63097;51.872;4.460;2023-07-08T06:44:44;101731.31;;;22.64;53.25
74594;BME280;63097;51.872;4.460;2023-07-08T06:47:10;101727.88;;;22.81;53.49
74594;BME280;63097;51.872;4.460;2023-07-08T06:49:35;101731.56;;;23.09;52.60
74594;BME280;63097;51.872;4.460;2023-07-08T06:52:00;101731.16;;;23.29;51.96
74594;BME280;63097;51.872;4.460;2023-07-08T06:54:25;101726.56;;;23.33;51.17
74594;BME280;63097;51.872;4.460;2023-07-08T06:56:51;101733.38;;;23.45;50.96
74594;BME280;63097;51.872;4.460;2023-07-08T06:59:16;101726.25;;;23.34;51.63
74594;BME280;63097;51.872;4.460;2023-07-08T07:01:41;101727.66;;;23.72;51.39
74594;BME280;63097;51.872;4.460;2023-07-08T07:04:07;101730.13;;;23.87;50.80
74594;BME280;63097;51.872;4.460;2023-07-08T07:06:32;101734.84;;;23.92;50.87
74594;BME280;63097;51.872;4.460;2023-07-08T07:08:57;101729.88;;;24.33;49.72
74594;BME280;63097;51.872;4.460;2023-07-08T07:11:23;101730.53;;;24.08;50.18
74594;BME280;63097;51.872;4.460;2023-07-08T07:13:48;101732.53;;;23.94;50.58
74594;BME280;63097;51.872;4.460;2023-07-08T07:16:13;101728.50;;;23.73;50.58
74594;BME280;63097;51.872;4.460;2023-07-08T07:18:39;101723.28;;;24.02;50.11
74594;BME280;63097;51.872;4.460;2023-07-08T07:21:04;101728.06;;;24.59;49.75
74594;BME280;63097;51.872;4.460;2023-07-08T07:23:29;101717.97;;;24.53;49.13
74594;BME280;63097;51.872;4.460;2023-07-08T07:25:55;101722.28;;;24.51;49.18
74594;BME280;63097;51.872;4.460;2023-07-08T07:28:20;101705.22;;;24.73;49.01
74594;BME280;63097;51.872;4.460;2023-07-08T07:30:46;101698.84;;;24.76;48.55
74594;BME280;63097;51.872;4.460;2023-07-08T07:33:12;101705.84;;;25.01;48.79
74594;BME280;63097;51.872;4.460;2023-07-08T07:35:44;101703.94;;;25.27;48.32
74594;BME280;63097;51.872;4.460;2023-07-08T07:38:10;101702.69;;;25.50;47.46
74594;BME280;63097;51.872;4.460;2023-07-08T07:40:35;101708.03;;;25.43;46.83
74594;BME280;63097;51.872;4.460;2023-07-08T07:43:00;101722.00;;;25.22;47.87
74594;BME280;63097;51.872;4.460;2023-07-08T07:45:26;101725.16;;;25.12;47.78
74594;BME280;63097;51.872;4.460;2023-07-08T07:47:51;101719.94;;;25.45;47.45
74594;BME280;63097;51.872;4.460;2023-07-08T07:50:16;101724.19;;;25.73;47.09
74594;BME280;63097;51.872;4.460;2023-07-08T07:52:42;101733.91;;;25.80;47.17
74594;BME280;63097;51.872;4.460;2023-07-08T07:55:07;101726.88;;;26.04;46.15
74594;BME280;63097;51.872;4.460;2023-07-08T07:57:33;101730.44;;;26.18;47.16
74594;BME280;63097;51.872;4.460;2023-07-08T07:59:58;101735.81;;;26.11;46.24
74594;BME280;63097;51.872;4.460;2023-07-08T08:02:23;101736.44;;;26.50;45.81
74594;BME280;63097;51.872;4.460;2023-07-08T08:04:49;101742.31;;;26.54;46.03
74594;BME280;63097;51.872;4.460;2023-07-08T08:07:14;101739.97;;;27.11;45.72
74594;BME280;63097;51.872;4.460;2023-07-08T08:09:39;101737.22;;;26.85;45.32
74594;BME280;63097;51.872;4.460;2023-07-08T08:12:10;101734.91;;;27.25;44.64
74594;BME280;63097;51.872;4.460;2023-07-08T08:14:36;101743.38;;;27.04;45.44
74594;BME280;63097;51.872;4.460;2023-07-08T08:17:01;101739.88;;;27.36;45.55
74594;BME280;63097;51.872;4.460;2023-07-08T08:19:27;101744.19;;;27.51;45.55
74594;BME280;63097;51.872;4.460;2023-07-08T08:21:52;101743.75;;;27.40;43.97
74594;BME280;63097;51.872;4.460;2023-07-08T08:24:17;101746.88;;;27.56;44.37
74594;BME280;63097;51.872;4.460;2023-07-08T08:26:42;101744.00;;;27.56;44.02
74594;BME280;63097;51.872;4.460;2023-07-08T08:29:08;101734.50;;;27.93;43.01
74594;BME280;63097;51.872;4.460;2023-07-08T08:31:33;101743.47;;;27.83;43.11
74594;BME280;63097;51.872;4.460;2023-07-08T08:33:58;101738.22;;;28.14;43.16
74594;BME280;63097;51.872;4.460;2023-07-08T08:36:24;101735.91;;;28.08;43.07
74594;BME280;63097;51.872;4.460;2023-07-08T08:38:49;101731.78;;;28.17;43.17
74594;BME280;63097;51.872;4.460;2023-07-08T08:41:18;101724.31;;;28.25;42.09
74594;BME280;63097;51.872;4.460;2023-07-08T08:43:44;101728.28;;;28.32;42.65
74594;BME280;63097;51.872;4.460;2023-07-08T08:46:57;101738.34;;;29.16;40.75
74594;BME280;63097;51.872;4.460;2023-07-08T08:51:47;101734.56;;;29.12;41.07
74594;BME280;63097;51.872;4.460;2023-07-08T08:54:13;101736.69;;;29.15;39.06
74594;BME280;63097;51.872;4.460;2023-07-08T08:56:48;101738.47;;;29.19;39.07
74594;BME280;63097;51.872;4.460;2023-07-08T09:01:51;101743.88;;;30.33;38.82
74594;BME280;63097;51.872;4.460;2023-07-08T09:04:22;101735.03;;;29.86;39.77
74594;BME280;63097;51.872;4.460;2023-07-08T09:06:51;101737.66;;;29.55;39.88
74594;BME280;63097;51.872;4.460;2023-07-08T09:09:24;101752.31;;;30.02;38.57
74594;BME280;63097;51.872;4.460;2023-07-08T09:12:25;101743.84;;;30.45;38.56
74594;BME280;63097;51.872;4.460;2023-07-08T09:14:52;101735.94;;;30.02;38.78
74594;BME280;63097;51.872;4.460;2023-07-08T09:17:24;101737.84;;;30.10;38.63
74594;BME280;63097;51.872;4.460;2023-07-08T09:20:06;101745.00;;;30.56;38.57
74594;BME280;63097;51.872;4.460;2023-07-08T09:22:44;101749.69;;;30.76;38.73
74594;BME280;63097;51.872;4.460;2023-07-08T09:28:00;101752.59;;;30.92;38.42
74594;BME280;63097;51.872;4.460;2023-07-08T09:30:25;101750.38;;;30.57;38.21
74594;BME280;63097;51.872;4.460;2023-07-08T09:32:51;101746.84;;;30.92;37.66
74594;BME280;63097;51.872;4.460;2023-07-08T09:35:25;101741.22;;;31.26;37.48
74594;BME280;63097;51.872;4.460;2023-07-08T09:37:52;101742.22;;;31.65;35.62
74594;BME280;63097;51.872;4.460;2023-07-08T09:42:52;101745.56;;;31.83;35.07
74594;BME280;63097;51.872;4.460;2023-07-08T09:45:20;101740.59;;;31.48;35.42
74594;BME280;63097;51.872;4.460;2023-07-08T09:47:47;101735.50;;;31.92;34.95
74594;BME280;63097;51.872;4.460;2023-07-08T09:50:26;101731.44;;;31.93;36.32
74594;BME280;63097;51.872;4.460;2023-07-08T09:52:55;101723.53;;;32.25;36.77
74594;BME280;63097;51.872;4.460;2023-07-08T09:55:21;101731.50;;;32.50;35.77
74594;BME280;63097;51.872;4.460;2023-07-08T09:57:48;101726.81;;;32.42;35.24
74594;BME280;63097;51.872;4.460;2023-07-08T10:00:17;101729.41;;;31.94;35.02
74594;BME280;63097;51.872;4.460;2023-07-08T10:02:51;101727.59;;;32.24;35.27
74594;BME280;63097;51.872;4.460;2023-07-08T10:07:57;101728.72;;;32.77;34.63
74594;BME280;63097;51.872;4.460;2023-07-08T10:10:30;101738.09;;;32.51;36.17
74594;BME280;63097;51.872;4.460;2023-07-08T10:12:59;101740.44;;;33.06;32.62
74594;BME280;63097;51.872;4.460;2023-07-08T10:15:39;101753.44;;;32.97;34.43
74594;BME280;63097;51.872;4.460;2023-07-08T10:18:10;101746.88;;;33.64;34.00
74594;BME280;63097;51.872;4.460;2023-07-08T10:21:45;101748.84;;;33.86;32.00
74594;BME280;63097;51.872;4.460;2023-07-08T10:26:34;101752.66;;;33.94;32.60
74594;BME280;63097;51.872;4.460;2023-07-08T10:34:55;101746.81;;;34.42;32.28
74594;BME280;63097;51.872;4.460;2023-07-08T10:37:37;101747.81;;;34.54;32.37
74594;BME280;63097;51.872;4.460;2023-07-08T10:40:28;101757.22;;;34.84;31.22
74594;BME280;63097;51.872;4.460;2023-07-08T10:43:07;101755.09;;;35.10;31.23
74594;BME280;63097;51.872;4.460;2023-07-08T10:56:35;101758.31;;;35.89;29.01
74594;BME280;63097;51.872;4.460;2023-07-08T10:59:19;101759.25;;;36.07;30.66
74594;BME280;63097;51.872;4.460;2023-07-08T11:07:50;101752.06;;;36.56;27.54
74594;BME280;63097;51.872;4.460;2023-07-08T11:10:21;101749.97;;;36.46;27.45
74594;BME280;63097;51.872;4.460;2023-07-08T11:12:57;101744.94;;;36.39;26.98
74594;BME280;63097;51.872;4.460;2023-07-08T11:15:36;101745.69;;;36.22;28.61
74594;BME280;63097;51.872;4.460;2023-07-08T11:18:11;101742.16;;;36.60;27.38
74594;BME280;63097;51.872;4.460;2023-07-08T11:20:44;101736.47;;;36.88;25.00
74594;BME280;63097;51.872;4.460;2023-07-08T11:23:26;101732.69;;;36.74;28.58
74594;BME280;63097;51.872;4.460;2023-07-08T11:26:05;101736.66;;;36.38;29.76
74594;BME280;63097;51.872;4.460;2023-07-08T11:28:32;101744.16;;;36.46;27.76
74594;BME280;63097;51.872;4.460;2023-07-08T11:31:00;101729.09;;;37.40;27.34
74594;BME280;63097;51.872;4.460;2023-07-08T11:33:26;101730.31;;;37.53;25.93
74594;BME280;63097;51.872;4.460;2023-07-08T11:35:54;101731.56;;;37.63;26.31
74594;BME280;63097;51.872;4.460;2023-07-08T11:38:21;101732.41;;;37.77;24.84
74594;BME280;63097;51.872;4.460;2023-07-08T11:43:16;101730.66;;;38.26;25.49
74594;BME280;63097;51.872;4.460;2023-07-08T11:45:42;101731.06;;;38.24;25.95
74594;BME280;63097;51.872;4.460;2023-07-08T11:48:22;101730.72;;;37.73;26.04
74594;BME280;63097;51.872;4.460;2023-07-08T11:50:49;101727.31;;;38.31;24.60
74594;BME280;63097;51.872;4.460;2023-07-08T11:56:02;101718.66;;;38.13;24.83
74594;BME280;63097;51.872;4.460;2023-07-08T11:58:50;101718.81;;;38.78;24.59
74594;BME280;63097;51.872;4.460;2023-07-08T12:01:33;101718.06;;;38.64;23.74
74594;BME280;63097;51.872;4.460;2023-07-08T12:09:00;101711.09;;;38.37;23.96
74594;BME280;63097;51.872;4.460;2023-07-08T12:11:39;101713.63;;;39.10;23.78
74594;BME280;63097;51.872;4.460;2023-07-08T12:14:04;101705.53;;;38.70;24.92
74594;BME280;63097;51.872;4.460;2023-07-08T12:16:31;101710.56;;;38.66;25.52
74594;BME280;63097;51.872;4.460;2023-07-08T12:18:58;101704.44;;;39.12;25.68
74594;BME280;63097;51.872;4.460;2023-07-08T12:21:27;101702.94;;;38.90;25.37
74594;BME280;63097;51.872;4.460;2023-07-08T12:23:52;101700.81;;;38.94;25.73
74594;BME280;63097;51.872;4.460;2023-07-08T12:26:18;101698.78;;;39.46;24.02
74594;BME280;63097;51.872;4.460;2023-07-08T12:28:43;101700.19;;;39.27;25.21
74594;BME280;63097;51.872;4.460;2023-07-08T12:31:20;101699.16;;;39.48;22.40
74594;BME280;63097;51.872;4.460;2023-07-08T12:33:46;101691.88;;;39.26;22.91
74594;BME280;63097;51.872;4.460;2023-07-08T12:36:20;101695.78;;;39.01;23.18
74594;BME280;63097;51.872;4.460;2023-07-08T12:38:47;101687.53;;;40.26;21.16
74594;BME280;63097;51.872;4.460;2023-07-08T12:41:17;101680.78;;;40.32;20.21
74594;BME280;63097;51.872;4.460;2023-07-08T12:43:44;101693.00;;;40.24;22.13
74594;BME280;63097;51.872;4.460;2023-07-08T12:46:10;101696.47;;;39.71;22.98
74594;BME280;63097;51.872;4.460;2023-07-08T12:48:37;101686.03;;;39.73;20.54
74594;BME280;63097;51.872;4.460;2023-07-08T12:51:03;101683.22;;;40.07;22.21
74594;BME280;63097;51.872;4.460;2023-07-08T12:53:29;101685.16;;;40.51;21.59
74594;BME280;63097;51.872;4.460;2023-07-08T12:55:57;101684.81;;;40.45;20.12
74594;BME280;63097;51.872;4.460;2023-07-08T12:58:26;101685.66;;;40.76;21.13
74594;BME280;63097;51.872;4.460;2023-07-08T13:00:52;101689.78;;;41.32;19.39
74594;BME280;63097;51.872;4.460;2023-07-08T13:03:23;101679.06;;;40.98;20.96
74594;BME280;63097;51.872;4.460;2023-07-08T13:05:51;101683.56;;;41.76;18.57
74594;BME280;63097;51.872;4.460;2023-07-08T13:08:20;101675.13;;;41.35;19.75
74594;BME280;63097;51.872;4.460;2023-07-08T13:10:47;101673.81;;;41.13;19.42
74594;BME280;63097;51.872;4.460;2023-07-08T13:13:19;101670.53;;;41.34;17.98
74594;BME280;63097;51.872;4.460;2023-07-08T13:15:46;101684.84;;;41.75;18.53
74594;BME280;63097;51.872;4.460;2023-07-08T13:18:19;101679.94;;;42.31;18.39
74594;BME280;63097;51.872;4.460;2023-07-08T13:20:53;101675.69;;;42.16;17.58
74594;BME280;63097;51.872;4.460;2023-07-08T13:23:21;101676.38;;;41.80;16.49
74594;BME280;63097;51.872;4.460;2023-07-08T13:25:50;101682.38;;;41.93;16.42
74594;BME280;63097;51.872;4.460;2023-07-08T13:28:27;101676.75;;;42.25;16.01
74594;BME280;63097;51.872;4.460;2023-07-08T13:30:59;101687.84;;;41.91;16.95
74594;BME280;63097;51.872;4.460;2023-07-08T13:33:30;101687.81;;;41.25;17.94
74594;BME280;63097;51.872;4.460;2023-07-08T13:35:55;101683.63;;;41.49;17.23
74594;BME280;63097;51.872;4.460;2023-07-08T13:38:23;101691.38;;;41.10;17.47
74594;BME280;63097;51.872;4.460;2023-07-08T13:40:58;101693.38;;;40.89;16.99
74594;BME280;63097;51.872;4.460;2023-07-08T13:43:25;101698.28;;;40.36;19.11
74594;BME280;63097;51.872;4.460;2023-07-08T13:45:51;101704.44;;;41.28;19.23
74594;BME280;63097;51.872;4.460;2023-07-08T13:48:24;101692.88;;;40.64;18.46